Time;durP1;ratioP1;P1;durP2;ratioP2;P2;SDS_P1;SDS_P2;PMS_P1;PMS_P2;Temp;Humidity;BMP_temperature;BMP_pressure;BME280_temperature;BME280_humidity;BME280_pressure;Samples;Min_cycle;Max_cycle;Signal;HPM_P1;HPM_P2
2021/12/02 00:00:59;;;;;;;9.05;4.50;;;;;;;-0.69;62.05;100191.08;1827758;78;20872;-75
2021/12/02 00:03:26;;;;;;;15.28;6.03;;;;;;;-0.72;61.92;100189.42;1827514;78;20973;-74
2021/12/02 00:05:54;;;;;;;12.70;6.30;;;;;;;-0.70;62.03;100197.97;1827629;77;21334;-74
2021/12/02 00:08:21;;;;;;;14.90;6.25;;;;;;;-0.74;61.92;100207.91;1827560;78;20904;-75
2021/12/02 00:10:48;;;;;;;6.90;4.28;;;;;;;-0.73;61.68;100203.64;1827651;78;20845;-75
2021/12/02 00:13:22;;;;;;;7.08;4.42;;;;;;;-0.76;61.57;100207.55;1827726;77;20848;-75
2021/12/02 00:15:57;;;;;;;13.83;6.33;;;;;;;-0.79;61.49;100221.33;1827531;77;21373;-75
2021/12/02 00:21:04;;;;;;;15.75;7.22;;;;;;;-0.83;61.17;100223.55;1827234;78;20883;-75
2021/12/02 00:23:39;;;;;;;15.05;7.28;;;;;;;-0.87;61.46;100221.49;1826849;77;20963;-75
2021/12/02 00:26:12;;;;;;;21.77;9.20;;;;;;;-0.89;61.54;100235.24;1827407;77;20880;-74
2021/12/02 00:28:40;;;;;;;17.70;8.13;;;;;;;-0.96;61.75;100229.81;1827252;78;21119;-75
2021/12/02 00:31:13;;;;;;;19.32;7.97;;;;;;;-1.00;61.67;100235.47;1827325;78;20916;-75
2021/12/02 00:33:40;;;;;;;14.75;6.40;;;;;;;-1.04;61.63;100238.97;1807877;78;20875;-74
2021/12/02 00:36:07;;;;;;;11.55;4.97;;;;;;;-1.07;61.47;100250.17;1826881;77;20884;-75
2021/12/02 00:38:34;;;;;;;7.83;4.28;;;;;;;-1.08;61.31;100260.48;1827295;78;20837;-75
2021/12/02 00:41:01;;;;;;;7.55;4.20;;;;;;;-1.12;61.24;100260.97;1827223;77;21100;-75
2021/12/02 00:43:28;;;;;;;4.25;2.83;;;;;;;-1.13;61.23;100258.45;1826807;78;21298;-77
2021/12/02 00:45:55;;;;;;;5.28;3.40;;;;;;;-1.16;61.08;100264.47;1827221;78;20892;-74
2021/12/02 00:48:21;;;;;;;6.92;3.60;;;;;;;-1.16;61.06;100268.33;1827424;78;20884;-74
2021/12/02 00:50:49;;;;;;;6.97;3.12;;;;;;;-1.16;61.07;100269.61;1827086;78;20904;-77
2021/12/02 00:53:20;;;;;;;5.33;4.05;;;;;;;-1.18;61.12;100264.09;1827486;78;21081;-74
2021/12/02 00:55:47;;;;;;;8.00;4.15;;;;;;;-1.21;61.18;100256.44;1827258;78;20872;-74
2021/12/02 00:58:19;;;;;;;7.60;4.60;;;;;;;-1.22;61.32;100259.86;1826939;77;20916;-74
2021/12/02 01:00:42;;;;;;;7.28;4.42;;;;;;;-1.22;61.35;100258.58;1826857;78;20923;-74
2021/12/02 01:03:09;;;;;;;8.50;5.22;;;;;;;-1.22;61.35;100256.88;1827064;77;20868;-76
2021/12/02 01:05:36;;;;;;;8.73;4.90;;;;;;;-1.22;61.48;100262.44;1827422;78;21207;-75
2021/12/02 01:08:04;;;;;;;11.88;6.30;;;;;;;-1.22;61.50;100274.89;1834844;77;20891;-75
2021/12/02 01:10:32;;;;;;;19.10;8.90;;;;;;;-1.26;61.36;100283.53;1836642;77;20912;-75
2021/12/02 01:12:58;;;;;;;13.72;7.25;;;;;;;-1.29;61.38;100278.41;1836217;78;20895;-75
2021/12/02 01:15:27;;;;;;;19.98;9.43;;;;;;;-1.35;61.62;100270.83;1836418;77;20899;-76
2021/12/02 01:17:54;;;;;;;18.15;8.73;;;;;;;-1.38;61.84;100273.02;1836571;77;21133;-74
2021/12/02 01:20:23;;;;;;;18.42;7.92;;;;;;;-1.41;61.91;100273.49;1835942;77;21079;-75
2021/12/02 01:22:50;;;;;;;24.35;10.65;;;;;;;-1.46;62.28;100269.27;1836580;77;20923;-75
2021/12/02 01:25:19;;;;;;;18.27;10.28;;;;;;;-1.50;62.31;100273.20;1835947;77;21175;-74
2021/12/02 01:27:48;;;;;;;22.20;9.73;;;;;;;-1.51;62.54;100274.94;1819477;77;20958;-75
2021/12/02 01:30:18;;;;;;;22.07;11.20;;;;;;;-1.51;62.81;100272.80;1836381;77;21109;-73
2021/12/02 01:32:45;;;;;;;19.98;10.40;;;;;;;-1.50;63.02;100275.33;1836089;77;20868;-74
2021/12/02 01:35:13;;;;;;;18.55;9.75;;;;;;;-1.49;63.14;100278.74;1835769;77;20860;-74
2021/12/02 01:37:40;;;;;;;20.05;9.23;;;;;;;-1.47;63.16;100282.14;1835608;77;21174;-74
2021/12/02 01:40:09;;;;;;;16.48;6.87;;;;;;;-1.47;63.26;100292.42;1837033;77;20951;-75
2021/12/02 01:42:38;;;;;;;19.57;8.95;;;;;;;-1.49;63.24;100281.31;1836531;77;21096;-76
2021/12/02 01:45:07;;;;;;;14.95;8.55;;;;;;;-1.49;63.33;100278.74;1835369;77;20896;-74
2021/12/02 01:47:34;;;;;;;15.55;7.50;;;;;;;-1.49;63.61;100275.77;1836424;77;20938;-75
2021/12/02 01:50:04;;;;;;;15.50;8.08;;;;;;;-1.47;63.84;100283.42;1836227;77;20974;-75
2021/12/02 01:52:32;;;;;;;19.37;8.48;;;;;;;-1.47;63.89;100290.73;1834695;77;20990;-75
2021/12/02 01:55:09;;;;;;;15.80;7.55;;;;;;;-1.48;64.10;100288.17;1833548;78;21130;-74
2021/12/02 01:57:44;;;;;;;18.20;8.30;;;;;;;-1.46;64.28;100292.41;1833620;78;21357;-73
2021/12/02 02:00:19;;;;;;;19.95;8.00;;;;;;;-1.47;64.62;100282.14;1833244;77;20896;-73
2021/12/02 02:02:47;;;;;;;14.93;7.50;;;;;;;-1.47;64.63;100286.00;1833559;78;20903;-74
2021/12/02 02:05:16;;;;;;;18.82;8.55;;;;;;;-1.50;64.74;100283.48;1833261;78;21357;-73
2021/12/02 02:08:17;;;;;;;16.73;9.08;;;;;;;-1.50;64.98;100286.06;1833235;77;21850;-74
2021/12/02 02:10:44;;;;;;;18.57;9.83;;;;;;;-1.52;64.92;100280.93;1834137;78;21424;-74
2021/12/02 02:13:12;;;;;;;15.20;7.75;;;;;;;-1.57;64.83;100290.45;1833194;78;20950;-74
2021/12/02 02:15:43;;;;;;;18.00;7.95;;;;;;;-1.60;64.89;100291.80;1833089;78;20918;-75
2021/12/02 02:21:05;;;;;;;17.90;9.75;;;;;;;-1.71;65.12;100299.66;1833187;77;21542;-75
2021/12/02 02:23:36;;;;;;;20.57;8.73;;;;;;;-1.76;65.09;100300.14;1833283;78;20935;-74
2021/12/02 02:26:02;;;;;;;14.87;8.98;;;;;;;-1.81;65.18;100299.81;1833035;78;20824;-74
2021/12/02 02:28:31;;;;;;;15.55;8.33;;;;;;;-1.83;65.35;100301.11;1833034;77;20987;-74
2021/12/02 02:30:58;;;;;;;15.88;7.75;;;;;;;-1.85;65.44;100306.70;1833127;77;20868;-73
2021/12/02 02:33:25;;;;;;;18.60;9.20;;;;;;;-1.82;65.50;100304.53;1833239;77;21516;-74
2021/12/02 02:35:52;;;;;;;16.20;8.50;;;;;;;-1.83;65.51;100302.84;1832800;78;20900;-73
2021/12/02 02:38:20;;;;;;;13.90;7.92;;;;;;;-1.84;65.44;100301.16;1832974;77;20947;-74
2021/12/02 02:40:48;;;;;;;15.45;7.40;;;;;;;-1.85;65.51;100299.44;1832917;78;21460;-73
2021/12/02 02:43:23;;;;;;;15.13;8.05;;;;;;;-1.86;65.65;100298.60;1833428;77;21316;-73
2021/12/02 02:45:51;;;;;;;13.85;7.25;;;;;;;-1.88;65.77;100300.34;1832957;78;21464;-75
2021/12/02 02:48:18;;;;;;;9.33;5.53;;;;;;;-1.89;65.85;100307.20;1832937;78;20896;-75
2021/12/02 02:50:44;;;;;;;9.43;6.05;;;;;;;-1.91;66.06;100297.83;1833052;78;20950;-75
2021/12/02 02:53:20;;;;;;;8.60;4.60;;;;;;;-1.94;66.29;100297.84;1832979;77;21009;-74
2021/12/02 02:58:30;;;;;;;9.78;5.00;;;;;;;-1.99;67.01;100297.91;1833339;78;21060;-74
2021/12/02 03:03:41;;;;;;;9.10;5.00;;;;;;;-2.02;67.61;100286.81;1818662;78;20884;-74
2021/12/02 03:08:41;;;;;;;5.05;3.02;;;;;;;-1.99;67.90;100277.80;1787418;78;21366;-76
2021/12/02 03:11:01;;;;;;;6.10;3.72;;;;;;;-1.98;67.97;100276.51;1825016;77;21231;-75
2021/12/02 03:13:37;;;;;;;5.45;3.70;;;;;;;-1.95;68.11;100277.73;1826899;77;20915;-75
2021/12/02 03:18:51;;;;;;;10.13;5.60;;;;;;;-1.88;68.33;100284.92;1826843;77;20884;-76
2021/12/02 03:21:22;;;;;;;9.35;5.15;;;;;;;-1.85;68.41;100282.73;1826856;78;20903;-76
2021/12/02 03:23:55;;;;;;;12.03;5.60;;;;;;;-1.84;68.63;100289.59;1826677;77;21126;-74
2021/12/02 03:26:22;;;;;;;10.50;5.70;;;;;;;-1.81;68.79;100299.81;1826830;77;20986;-75
2021/12/02 03:28:50;;;;;;;6.67;4.05;;;;;;;-1.80;68.89;100295.08;1826905;78;20863;-76
2021/12/02 03:31:17;;;;;;;5.62;4.58;;;;;;;-1.84;68.84;100293.00;1827002;78;20950;-75
2021/12/02 03:33:44;;;;;;;6.92;4.75;;;;;;;-1.85;68.88;100299.44;1827350;78;20924;-76
2021/12/02 03:36:12;;;;;;;9.53;6.25;;;;;;;-1.87;68.98;100309.73;1826904;77;21048;-76
2021/12/02 03:38:39;;;;;;;5.05;4.00;;;;;;;-1.92;69.06;100317.95;1826847;78;20861;-75
2021/12/02 03:41:06;;;;;;;7.28;4.22;;;;;;;-1.99;69.17;100317.19;1826885;77;20861;-76
2021/12/02 03:43:42;;;;;;;5.85;4.72;;;;;;;-2.01;69.39;100322.78;1826941;77;20928;-76
2021/12/02 03:46:10;;;;;;;7.00;3.92;;;;;;;-2.03;69.55;100321.94;1827216;78;20880;-76
2021/12/02 03:48:38;;;;;;;6.62;3.87;;;;;;;-2.03;69.58;100327.52;1826998;78;21826;-76
2021/12/02 03:51:05;;;;;;;5.20;4.15;;;;;;;-2.05;69.74;100325.41;1826979;78;20885;-74
2021/12/02 03:53:33;;;;;;;8.00;5.47;;;;;;;-2.04;69.74;100326.69;1827097;78;20918;-76
2021/12/02 03:56:01;;;;;;;10.53;4.60;;;;;;;-2.06;69.77;100322.44;1827309;77;20923;-75
2021/12/02 03:58:29;;;;;;;9.33;4.62;;;;;;;-2.08;69.86;100323.73;1826963;77;20907;-77
2021/12/02 04:00:56;;;;;;;5.85;5.08;;;;;;;-2.09;70.05;100324.17;1827293;78;21108;-76
2021/12/02 04:03:22;;;;;;;6.90;4.45;;;;;;;-2.05;70.18;100335.69;1826990;77;20923;-76
2021/12/02 04:05:50;;;;;;;6.67;4.47;;;;;;;-2.05;70.31;100342.95;1826924;78;21456;-76
2021/12/02 04:08:17;;;;;;;5.50;4.92;;;;;;;-2.02;70.41;100341.64;1830109;78;20860;-77
2021/12/02 04:10:46;;;;;;;9.45;5.97;;;;;;;-2.01;70.58;100340.77;1833438;78;21440;-76
2021/12/02 04:13:24;;;;;;;8.23;5.15;;;;;;;-1.98;70.74;100336.89;1833155;77;21064;-77
2021/12/02 04:15:45;;;;;;;9.13;6.75;;;;;;;-1.97;70.59;100333.88;1831019;77;20864;-75
2021/12/02 04:18:10;;;;;;;8.05;6.20;;;;;;;-2.00;70.69;100330.05;1833048;77;20816;-77
2021/12/02 04:20:37;;;;;;;9.30;6.20;;;;;;;-2.01;70.68;100336.06;1833199;78;20883;-76
2021/12/02 04:23:04;;;;;;;11.08;7.17;;;;;;;-2.06;70.80;100342.55;1833124;77;20903;-76
2021/12/02 04:25:31;;;;;;;18.92;10.32;;;;;;;-2.09;71.22;100338.30;1833311;77;21914;-76
2021/12/02 04:27:58;;;;;;;14.75;9.60;;;;;;;-2.07;71.44;100347.70;1833045;78;20907;-75
2021/12/02 04:30:26;;;;;;;7.47;5.47;;;;;;;-2.06;71.59;100349.41;1833134;78;20891;-75
2021/12/02 04:32:54;;;;;;;10.68;7.70;;;;;;;-2.06;71.39;100337.85;1833062;78;20923;-76
2021/12/02 04:35:21;;;;;;;10.13;6.42;;;;;;;-2.11;71.50;100344.34;1832972;78;21357;-76
2021/12/02 04:37:51;;;;;;;6.45;5.15;;;;;;;-2.09;71.66;100339.59;1832998;78;21128;-75
2021/12/02 04:40:18;;;;;;;11.15;6.28;;;;;;;-2.09;71.87;100334.86;1832686;77;20899;-76
2021/12/02 04:42:45;;;;;;;10.08;6.65;;;;;;;-2.05;71.94;100335.24;1833125;78;21001;-73
2021/12/02 04:45:12;;;;;;;8.90;6.37;;;;;;;-2.06;71.95;100331.43;1833066;78;21017;-76
2021/12/02 04:47:39;;;;;;;13.58;8.28;;;;;;;-2.04;72.09;100334.39;1833168;77;20856;-74
2021/12/02 04:50:09;;;;;;;13.40;7.37;;;;;;;-2.02;72.11;100333.94;1833096;78;20911;-75
2021/12/02 04:52:37;;;;;;;15.32;9.60;;;;;;;-2.01;72.15;100341.20;1832911;78;21357;-76
2021/12/02 04:55:05;;;;;;;12.15;8.38;;;;;;;-2.00;72.13;100341.61;1833051;78;20907;-75
2021/12/02 04:57:33;;;;;;;13.15;7.75;;;;;;;-1.99;72.04;100344.61;1833018;77;20927;-75
2021/12/02 05:00:00;;;;;;;17.37;9.45;;;;;;;-1.99;72.05;100343.32;1833000;77;20872;-76
2021/12/02 05:02:26;;;;;;;15.10;9.13;;;;;;;-1.99;72.06;100345.45;1833171;77;21931;-75
2021/12/02 05:04:53;;;;;;;16.48;8.65;;;;;;;-2.00;72.00;100346.33;1832870;78;21017;-75
2021/12/02 05:07:20;;;;;;;17.12;9.63;;;;;;;-2.00;71.92;100341.19;1832916;76;21425;-76
2021/12/02 05:09:48;;;;;;;14.20;8.73;;;;;;;-2.02;71.92;100336.51;1833119;78;21345;-74
2021/12/02 05:12:15;;;;;;;18.07;7.95;;;;;;;-1.98;72.04;100338.58;1833137;78;21404;-76
2021/12/02 05:14:42;;;;;;;14.95;9.65;;;;;;;-1.94;72.00;100345.39;1832933;77;21058;-75
2021/12/02 05:17:09;;;;;;;14.73;9.25;;;;;;;-1.90;71.92;100349.17;1833026;78;20832;-76
2021/12/02 05:19:36;;;;;;;13.45;8.08;;;;;;;-1.86;71.75;100342.73;1833087;78;20903;-72
2021/12/02 05:22:04;;;;;;;12.55;8.58;;;;;;;-1.83;71.75;100349.94;1833194;78;20954;-81
2021/12/02 05:24:32;;;;;;;13.45;8.60;;;;;;;-1.78;71.63;100339.59;1833473;78;21033;-80
2021/12/02 05:26:59;;;;;;;12.80;8.43;;;;;;;-1.77;71.63;100351.16;1833334;78;21158;-78
2021/12/02 05:29:27;;;;;;;14.60;8.20;;;;;;;-1.71;71.68;100353.64;1833495;78;21334;-83
2021/12/02 05:31:54;;;;;;;13.45;8.13;;;;;;;-1.65;71.57;100346.70;1833162;78;20966;-80
2021/12/02 05:34:21;;;;;;;13.22;9.50;;;;;;;-1.59;71.57;100351.33;1833039;78;20990;-82
2021/12/02 05:36:48;;;;;;;12.98;8.85;;;;;;;-1.54;71.60;100352.09;1833267;78;20872;-84
2021/12/02 05:39:15;;;;;;;14.63;8.83;;;;;;;-1.48;71.51;100358.89;1833112;78;21936;-84
2021/12/02 05:41:43;;;;;;;13.70;7.87;;;;;;;-1.42;71.50;100361.78;1833212;77;20923;-82
2021/12/02 05:44:10;;;;;;;14.63;8.65;;;;;;;-1.37;71.43;100358.73;1833074;78;21036;-83
2021/12/02 05:46:40;;;;;;;12.00;7.55;;;;;;;-1.31;71.33;100361.22;1833178;78;20880;-83
2021/12/02 05:49:07;;;;;;;13.90;8.30;;;;;;;-1.24;71.11;100362.81;1832981;77;20914;-83
2021/12/02 05:51:34;;;;;;;16.25;8.95;;;;;;;-1.21;70.94;100364.04;1833178;78;21182;-83
2021/12/02 05:54:01;;;;;;;16.48;9.88;;;;;;;-1.16;70.92;100369.95;1833239;77;20824;-83
2021/12/02 05:56:28;;;;;;;14.30;8.83;;;;;;;-1.10;70.73;100371.59;1833044;78;20859;-77
2021/12/02 05:58:55;;;;;;;11.22;7.92;;;;;;;-1.05;70.51;100366.77;1833132;78;20915;-80
2021/12/02 06:01:24;;;;;;;17.30;9.20;;;;;;;-1.02;70.06;100370.16;1833152;78;21041;-80
2021/12/02 06:03:51;;;;;;;14.23;9.18;;;;;;;-1.05;69.97;100372.36;1832861;78;21816;-80
2021/12/02 06:06:18;;;;;;;12.13;7.80;;;;;;;-1.01;69.77;100369.31;1833326;78;20844;-80
2021/12/02 06:08:47;;;;;;;13.43;8.10;;;;;;;-0.95;69.35;100373.92;1833131;77;20868;-80
2021/12/02 06:11:15;;;;;;;16.27;8.10;;;;;;;-0.91;68.87;100375.56;1833399;77;20955;-80
2021/12/02 06:13:46;;;;;;;14.50;7.97;;;;;;;-0.89;68.71;100381.95;1834224;78;20876;-80
2021/12/02 06:16:13;;;;;;;11.05;7.55;;;;;;;-0.86;68.36;100386.63;1833358;78;21507;-80
2021/12/02 06:18:40;;;;;;;14.05;8.28;;;;;;;-0.83;68.15;100389.58;1832969;77;20907;-81
2021/12/02 06:21:07;;;;;;;24.00;10.08;;;;;;;-0.81;68.14;100388.28;1833257;78;20915;-80
2021/12/02 06:23:35;;;;;;;23.10;10.60;;;;;;;-0.75;68.10;100390.31;1833193;78;20962;-79
2021/12/02 06:26:02;;;;;;;18.48;10.00;;;;;;;-0.69;68.08;100389.34;1832951;78;20966;-80
2021/12/02 06:28:29;;;;;;;30.75;12.58;;;;;;;-0.63;68.01;100387.95;1833029;77;21297;-80
2021/12/02 06:30:57;;;;;;;38.17;13.35;;;;;;;-0.57;68.29;100389.58;1832999;77;21329;-79
2021/12/02 06:33:24;;;;;;;43.50;16.82;;;;;;;-0.50;68.38;100402.30;1832911;78;20927;-79
2021/12/02 06:35:51;;;;;;;33.67;15.75;;;;;;;-0.46;68.43;100409.11;1832944;77;20887;-80
2021/12/02 06:38:18;;;;;;;21.93;12.28;;;;;;;-0.39;68.65;100415.44;1833104;78;20875;-78
2021/12/02 06:40:45;;;;;;;17.32;10.45;;;;;;;-0.36;68.69;100402.05;1833154;77;21289;-88
2021/12/02 06:43:15;;;;;;;13.28;8.98;;;;;;;-0.33;68.65;100407.16;1832888;77;21346;-79
2021/12/02 06:45:41;;;;;;;10.90;7.95;;;;;;;-0.31;68.68;100403.24;1832949;78;21384;-82
2021/12/02 06:48:08;;;;;;;15.50;9.03;;;;;;;-0.29;68.72;100398.50;1833006;77;20926;-81
2021/12/02 06:50:37;;;;;;;13.22;9.18;;;;;;;-0.18;68.82;100396.14;1833013;78;20880;-80
2021/12/02 06:53:05;;;;;;;18.48;10.50;;;;;;;-0.15;68.71;100393.08;1833036;78;21876;-80
2021/12/02 06:55:32;;;;;;;20.30;12.00;;;;;;;-0.11;68.77;100384.41;1833055;78;20923;-81
2021/12/02 06:57:59;;;;;;;15.20;10.23;;;;;;;-0.11;68.91;100383.12;1833264;77;21422;-78
2021/12/02 07:00:26;;;;;;;16.93;11.08;;;;;;;-0.09;69.11;100383.94;1833526;78;21005;-79
2021/12/02 07:02:53;;;;;;;15.08;9.30;;;;;;;-0.06;69.31;100386.89;1833535;77;21383;-80
2021/12/02 07:05:20;;;;;;;17.25;10.53;;;;;;;-0.04;69.30;100382.11;1833441;78;21727;-80
2021/12/02 07:07:48;;;;;;;18.65;12.58;;;;;;;0.01;69.31;100383.75;1833469;78;20875;-80
2021/12/02 07:10:19;;;;;;;17.40;11.10;;;;;;;0.02;69.28;100378.55;1827051;77;20931;-78
2021/12/02 07:12:48;;;;;;;18.80;11.20;;;;;;;0.08;69.46;100385.31;1826917;78;20884;-80
2021/12/02 07:15:18;;;;;;;18.30;12.00;;;;;;;0.13;69.64;100383.48;1827106;78;21433;-83
2021/12/02 07:17:49;;;;;;;17.02;10.65;;;;;;;0.19;69.74;100382.07;1826779;78;21091;-79
2021/12/02 07:20:15;;;;;;;14.80;10.30;;;;;;;0.27;69.83;100392.20;1827323;78;20915;-81
2021/12/02 07:22:42;;;;;;;16.32;11.93;;;;;;;0.30;69.99;100398.16;1827131;78;20986;-81
2021/12/02 07:25:09;;;;;;;25.97;14.38;;;;;;;0.35;70.10;100393.73;1827242;78;20907;-79
2021/12/02 07:27:37;;;;;;;20.45;12.95;;;;;;;0.37;70.23;100397.59;1827160;77;20903;-80
2021/12/02 07:30:06;;;;;;;17.25;11.28;;;;;;;0.41;70.37;100402.64;1827501;78;21152;-83
2021/12/02 07:32:40;;;;;;;17.48;11.18;;;;;;;0.42;70.56;100413.80;1826848;78;21072;-80
2021/12/02 07:35:13;;;;;;;18.15;12.25;;;;;;;0.45;70.77;100408.59;1827595;78;20923;-79
2021/12/02 07:37:48;;;;;;;19.27;12.58;;;;;;;0.53;70.81;100416.16;1827109;78;20891;-81
2021/12/02 07:40:17;;;;;;;15.55;11.68;;;;;;;0.58;70.88;100416.47;1827168;78;20935;-83
2021/12/02 07:42:46;;;;;;;15.80;10.08;;;;;;;0.70;70.94;100426.11;1827427;78;21136;-80
2021/12/02 07:45:13;;;;;;;17.20;10.38;;;;;;;0.79;71.05;100424.61;1806837;78;20962;-82
2021/12/02 07:47:41;;;;;;;18.48;12.90;;;;;;;0.92;70.99;100420.02;1827224;78;20905;-79
2021/12/02 07:50:11;;;;;;;17.20;12.00;;;;;;;1.04;71.04;100409.38;1827071;78;20892;-80
2021/12/02 07:52:46;;;;;;;21.20;14.78;;;;;;;1.22;71.00;100417.12;1827251;77;20967;-82
2021/12/02 07:55:15;;;;;;;28.92;17.77;;;;;;;1.38;70.88;100407.25;1827443;78;21132;-81
2021/12/02 07:57:45;;;;;;;23.65;15.55;;;;;;;1.50;71.03;100412.11;1827096;78;21003;-82
2021/12/02 08:00:16;;;;;;;24.37;15.88;;;;;;;1.62;71.15;100407.92;1826165;78;20955;-81
2021/12/02 08:02:49;;;;;;;24.60;16.10;;;;;;;1.73;71.30;100408.06;1789965;79;20950;-81
2021/12/02 08:05:16;;;;;;;21.33;15.32;;;;;;;1.85;71.34;100394.82;1790616;80;20962;-80
2021/12/02 08:07:44;;;;;;;22.50;15.95;;;;;;;1.96;71.47;100385.02;1790448;80;21142;-82
2021/12/02 08:10:15;;;;;;;20.88;14.58;;;;;;;2.09;71.62;100381.65;1790390;78;20981;-81
2021/12/02 08:12:49;;;;;;;21.15;14.03;;;;;;;2.21;71.53;100389.03;1790745;80;20898;-80
2021/12/02 08:15:23;;;;;;;21.17;14.10;;;;;;;2.37;71.38;100388.13;1790504;79;20914;-81
2021/12/02 08:17:52;;;;;;;19.00;12.15;;;;;;;2.50;71.29;100370.50;1790604;80;21630;-78
2021/12/02 08:20:20;;;;;;;18.82;13.25;;;;;;;2.60;70.97;100383.57;1790498;78;21132;-80
2021/12/02 08:22:47;;;;;;;26.73;14.38;;;;;;;2.72;70.58;100387.51;1790418;79;20868;-80
2021/12/02 08:25:14;;;;;;;31.27;17.32;;;;;;;2.78;70.33;100386.45;1759749;80;20930;-80
2021/12/02 08:27:42;;;;;;;32.55;19.25;;;;;;;2.81;70.42;100385.08;1790499;80;20895;-80
2021/12/02 08:30:11;;;;;;;38.20;19.15;;;;;;;2.86;70.52;100381.89;1790569;80;21016;-78
2021/12/02 08:32:41;;;;;;;25.80;15.53;;;;;;;2.88;70.56;100364.11;1790894;78;21188;-80
2021/12/02 08:35:09;;;;;;;21.07;13.72;;;;;;;3.00;70.22;100368.06;1790540;79;21356;-80
2021/12/02 08:37:40;;;;;;;20.17;13.08;;;;;;;3.04;70.03;100364.44;1790449;79;20915;-79
2021/12/02 08:40:07;;;;;;;17.40;13.20;;;;;;;3.08;69.66;100356.97;1790074;78;20899;-82
2021/12/02 08:42:34;;;;;;;16.82;12.47;;;;;;;3.14;69.52;100362.41;1790587;80;20930;-81
2021/12/02 08:45:01;;;;;;;20.65;14.47;;;;;;;3.18;69.05;100361.42;1791008;80;21112;-82
2021/12/02 08:47:28;;;;;;;20.08;14.93;;;;;;;3.21;69.07;100350.09;1790611;80;20970;-89
2021/12/02 08:49:56;;;;;;;20.08;14.78;;;;;;;3.22;69.15;100350.48;1790976;79;20981;-76
2021/12/02 08:52:26;;;;;;;25.85;16.97;;;;;;;3.24;69.04;100343.05;1790551;78;20970;-77
2021/12/02 08:54:53;;;;;;;15.98;12.45;;;;;;;3.31;68.90;100351.03;1791222;80;20935;-74
2021/12/02 08:57:21;;;;;;;17.02;12.68;;;;;;;3.37;68.51;100345.23;1790993;80;21130;-78
2021/12/02 08:59:49;;;;;;;18.15;12.58;;;;;;;3.41;68.04;100335.16;1790435;78;21025;-82
2021/12/02 09:02:16;;;;;;;16.42;11.65;;;;;;;3.45;67.78;100334.16;1790605;80;21565;-76
2021/12/02 09:04:43;;;;;;;15.45;12.00;;;;;;;3.43;67.66;100333.36;1790804;80;20962;-79
2021/12/02 09:07:09;;;;;;;15.38;11.88;;;;;;;3.42;67.54;100338.97;1790515;80;20875;-76
2021/12/02 09:09:37;;;;;;;19.32;13.70;;;;;;;3.38;67.54;100333.52;1790578;79;21921;-78
2021/12/02 09:12:05;;;;;;;18.25;13.20;;;;;;;3.33;67.54;100330.23;1790162;79;20997;-78
2021/12/02 09:14:34;;;;;;;20.20;13.03;;;;;;;3.28;67.74;100339.45;1790503;79;21474;-79
2021/12/02 09:17:01;;;;;;;19.17;13.53;;;;;;;3.25;67.79;100338.73;1790517;79;21344;-78
2021/12/02 09:19:29;;;;;;;18.55;14.23;;;;;;;3.22;68.03;100332.34;1790720;80;20839;-77
2021/12/02 09:21:55;;;;;;;16.75;12.55;;;;;;;3.19;68.18;100323.39;1790452;80;21101;-78
2021/12/02 09:24:22;;;;;;;17.02;12.47;;;;;;;3.18;68.29;100316.50;1790342;80;20985;-80
2021/12/02 09:26:50;;;;;;;18.20;13.05;;;;;;;3.20;68.44;100316.00;1760038;80;20898;-79
2021/12/02 09:29:17;;;;;;;16.70;13.10;;;;;;;3.20;68.44;100306.50;1790312;80;20934;-77
2021/12/02 09:31:45;;;;;;;14.15;11.48;;;;;;;3.24;68.59;100313.25;1790501;80;20891;-77
2021/12/02 09:34:11;;;;;;;16.75;12.35;;;;;;;3.28;68.46;100299.75;1790647;80;21525;-76
2021/12/02 09:36:39;;;;;;;20.62;14.20;;;;;;;3.30;68.53;100303.14;1790413;79;20871;-76
2021/12/02 09:39:07;;;;;;;14.45;12.88;;;;;;;3.32;68.61;100295.70;1790629;80;20926;-76
2021/12/02 09:41:35;;;;;;;15.63;13.22;;;;;;;3.39;68.67;100290.30;1790318;78;21460;-77
2021/12/02 09:44:02;;;;;;;18.90;12.58;;;;;;;3.45;68.49;100281.86;1790802;78;20878;-76
2021/12/02 09:46:29;;;;;;;17.15;11.15;;;;;;;3.52;68.32;100282.02;1790588;80;21086;-79
2021/12/02 09:48:57;;;;;;;14.98;11.38;;;;;;;3.63;68.14;100275.16;1790502;80;20887;-75
2021/12/02 09:51:25;;;;;;;14.25;10.45;;;;;;;3.73;67.67;100270.46;1790759;78;20954;-77
2021/12/02 09:53:55;;;;;;;17.20;11.65;;;;;;;3.79;67.29;100270.70;1790804;80;20974;-76
2021/12/02 09:56:26;;;;;;;21.80;11.50;;;;;;;3.83;66.97;100265.80;1790344;80;20902;-75
2021/12/02 09:58:55;;;;;;;21.62;12.63;;;;;;;3.92;66.91;100260.25;1790589;78;21561;-76
2021/12/02 10:01:36;;;;;;;21.65;11.93;;;;;;;4.03;66.55;100256.79;1790381;79;20915;-77
2021/12/02 10:04:00;;;;;;;27.45;13.18;;;;;;;4.15;66.05;100248.51;1788923;80;20926;-77
2021/12/02 10:06:29;;;;;;;17.17;11.30;;;;;;;4.27;65.81;100257.58;1789818;80;20959;-76
2021/12/02 10:09:05;;;;;;;19.90;12.20;;;;;;;4.39;65.22;100250.20;1790363;78;21558;-77
2021/12/02 10:11:47;;;;;;;17.15;11.20;;;;;;;4.46;64.98;100245.15;1794693;80;21151;-78
2021/12/02 10:14:30;;;;;;;27.65;13.83;;;;;;;4.52;64.46;100241.01;1794575;80;20930;-78
2021/12/02 10:17:13;;;;;;;18.67;11.43;;;;;;;4.54;64.50;100230.95;1795371;80;20954;-78
2021/12/02 10:20:51;;;;;;;15.03;9.78;;;;;;;4.64;64.72;100230.56;1796219;80;20930;-75
2021/12/02 10:22:33;;;;;;;15.98;9.90;;;;;;;4.75;63.72;100234.39;1755777;80;20933;-77
2021/12/02 10:25:00;;;;;;;13.83;10.70;;;;;;;4.83;62.88;100226.28;1764858;80;21941;-76
2021/12/02 10:27:27;;;;;;;12.90;10.15;;;;;;;4.88;62.97;100229.52;1796440;80;20971;-78
2021/12/02 10:29:54;;;;;;;11.90;8.85;;;;;;;4.93;62.14;100231.92;1796228;80;21412;-77
2021/12/02 10:32:25;;;;;;;13.68;9.25;;;;;;;4.90;61.71;100222.97;1764602;80;20983;-76
2021/12/02 10:35:01;;;;;;;14.45;10.10;;;;;;;4.88;61.95;100219.59;1781567;80;20852;-78
2021/12/02 10:37:34;;;;;;;19.62;11.80;;;;;;;4.85;61.84;100207.58;1781556;80;21167;-77
2021/12/02 10:40:05;;;;;;;15.23;10.75;;;;;;;4.84;62.11;100207.64;1781602;79;20900;-77
2021/12/02 10:42:37;;;;;;;11.80;9.38;;;;;;;4.82;62.20;100200.36;1781723;80;20931;-78
2021/12/02 10:45:07;;;;;;;14.70;10.28;;;;;;;4.77;62.19;100183.22;1764891;80;20978;-79
2021/12/02 10:47:35;;;;;;;15.00;9.10;;;;;;;4.70;62.42;100183.09;1796357;78;21361;-76
2021/12/02 10:50:09;;;;;;;13.25;9.55;;;;;;;4.60;62.64;100174.00;1764786;80;21778;-76
2021/12/02 10:52:37;;;;;;;12.13;9.48;;;;;;;4.54;62.96;100169.09;1776333;80;20963;-76
2021/12/02 10:55:15;;;;;;;13.70;9.55;;;;;;;4.49;63.27;100165.82;1764896;80;21408;-76
2021/12/02 10:57:52;;;;;;;11.83;8.43;;;;;;;4.46;63.53;100165.96;1796290;80;21056;-76
2021/12/02 11:00:25;;;;;;;13.90;9.05;;;;;;;4.44;63.68;100159.53;1764981;80;21341;-78
2021/12/02 11:02:58;;;;;;;12.53;9.60;;;;;;;4.44;63.93;100154.34;1796302;78;21151;-77
2021/12/02 11:05:33;;;;;;;13.18;9.03;;;;;;;4.44;64.22;100154.80;1764789;80;20867;-76
2021/12/02 11:08:09;;;;;;;12.10;9.75;;;;;;;4.43;64.49;100134.48;1796209;80;20899;-77
2021/12/02 11:10:48;;;;;;;14.75;9.43;;;;;;;4.46;64.71;100133.05;1761501;80;20923;-78
2021/12/02 11:13:22;;;;;;;11.88;9.03;;;;;;;4.52;64.84;100134.09;1779247;80;20967;-79
2021/12/02 11:15:50;;;;;;;9.55;7.35;;;;;;;4.61;65.11;100122.93;1779622;80;22006;-77
2021/12/02 11:18:20;;;;;;;10.10;7.45;;;;;;;4.63;65.19;100111.56;1779336;80;21323;-78
2021/12/02 11:20:51;;;;;;;8.60;7.37;;;;;;;4.73;65.27;100104.20;1749889;80;20856;-77
2021/12/02 11:24:37;;;;;;;15.10;8.30;;;;;;;4.90;65.62;100099.56;1797817;79;22482;-77
2021/12/02 11:27:39;;;;;;;10.93;7.45;;;;;;;4.93;65.86;100096.34;1758331;80;20892;-78
2021/12/02 11:30:19;;;;;;;10.88;7.22;;;;;;;4.99;66.30;100092.19;1758286;80;21135;-78
2021/12/02 11:32:59;;;;;;;11.28;6.78;;;;;;;5.06;66.60;100099.70;1758423;80;20964;-80
2021/12/02 11:35:35;;;;;;;8.65;6.80;;;;;;;5.13;66.82;100095.91;1758382;81;21441;-78
2021/12/02 11:38:21;;;;;;;7.50;5.65;;;;;;;5.21;67.02;100099.47;1757167;80;20995;-81
2021/12/02 11:40:51;;;;;;;9.43;5.72;;;;;;;5.26;67.12;100091.83;1759481;80;20888;-79
2021/12/02 11:43:25;;;;;;;6.35;4.97;;;;;;;5.34;67.18;100087.59;1758131;80;21369;-80
2021/12/02 11:45:52;;;;;;;8.25;4.87;;;;;;;5.40;67.38;100082.08;1758564;80;21329;-79